createdAt,value
2023-04-16T00:00:39.972Z,32.42
2023-04-16T00:01:42.011Z,34.28
2023-04-16T00:02:44.917Z,35.78
2023-04-16T00:03:47.079Z,32.92
2023-04-16T00:04:50.507Z,33.30
2023-04-16T00:05:55.795Z,39.55
2023-04-16T00:06:58.748Z,49.40
2023-04-16T00:08:00.756Z,54.70
2023-04-16T00:09:04.933Z,82.38
2023-04-16T00:10:08.045Z,58.20
2023-04-16T00:11:11.120Z,62.17
2023-04-16T00:12:12.920Z,41.58
2023-04-16T00:13:15.632Z,90.00
2023-04-16T00:14:17.682Z,35.92
2023-04-16T00:15:20.419Z,35.13
2023-04-16T00:16:25.546Z,26.30
2023-04-16T00:17:28.639Z,29.00
2023-04-16T00:18:30.899Z,24.55
2023-04-16T00:19:33.666Z,26.75
2023-04-16T00:20:35.515Z,30.35
2023-04-16T00:21:38.376Z,35.63
2023-04-16T00:22:40.290Z,27.10
2023-04-16T00:23:43.179Z,37.42
2023-04-16T00:24:46.314Z,29.48
2023-04-16T00:25:49.091Z,35.25
2023-04-16T00:26:51.151Z,33.03
2023-04-16T00:27:53.915Z,81.28
2023-04-16T00:28:55.704Z,45.95
2023-04-16T00:29:58.608Z,40.05
2023-04-16T00:31:01.446Z,44.38
2023-04-16T00:32:06.241Z,60.40
2023-04-16T00:33:08.299Z,44.50
2023-04-16T00:34:11.373Z,51.47
2023-04-16T00:35:13.559Z,44.38
2023-04-16T00:36:16.367Z,45.42
2023-04-16T00:37:18.185Z,44.33
2023-04-16T00:38:20.974Z,80.28
2023-04-16T00:39:26.252Z,77.15
2023-04-16T00:40:30.824Z,57.72
2023-04-16T00:41:32.863Z,72.13
2023-04-16T00:42:37.251Z,59.05
2023-04-16T00:43:39.108Z,36.58
2023-04-16T00:44:41.860Z,35.28
2023-04-16T00:45:44.053Z,39.03
2023-04-16T00:46:47.322Z,31.98
2023-04-16T00:47:49.711Z,37.78
2023-04-16T00:48:54.531Z,88.47
2023-04-16T00:49:56.296Z,142.15
2023-04-16T00:51:01.043Z,87.72
2023-04-16T00:52:03.394Z,142.10
2023-04-16T00:53:06.540Z,132.95
2023-04-16T00:54:08.424Z,130.27
2023-04-16T00:55:13.390Z,127.28
2023-04-16T00:56:17.760Z,84.95
2023-04-16T00:57:23.843Z,110.85
2023-04-16T00:58:26.513Z,47.97
2023-04-16T00:59:30.078Z,95.20
2023-04-16T01:00:31.908Z,37.03
2023-04-16T01:01:34.867Z,32.90
2023-04-16T01:02:36.950Z,37.00
2023-04-16T01:03:41.168Z,33.88
2023-04-16T01:04:43.391Z,35.08
2023-04-16T01:05:49.230Z,36.35
2023-04-16T01:06:51.237Z,37.60
2023-04-16T01:07:54.148Z,35.08
2023-04-16T01:08:55.988Z,32.92
2023-04-16T01:09:58.776Z,36.20
2023-04-16T01:11:00.747Z,40.33
2023-04-16T01:12:05.030Z,66.43
2023-04-16T01:13:06.831Z,74.85
2023-04-16T01:14:09.730Z,52.90
2023-04-16T01:15:11.901Z,37.13
2023-04-16T01:16:14.749Z,81.55
2023-04-16T01:17:16.881Z,79.63
2023-04-16T01:18:20.540Z,69.68
2023-04-16T01:19:22.365Z,39.78
2023-04-16T01:20:25.581Z,28.60
2023-04-16T01:21:28.819Z,37.88
2023-04-16T01:22:31.589Z,31.85
2023-04-16T01:23:34.252Z,32.45
2023-04-16T01:24:39.947Z,30.30
2023-04-16T01:25:45.391Z,34.10
2023-04-16T01:26:48.229Z,31.38
2023-04-16T01:27:50.735Z,33.85
2023-04-16T01:28:53.495Z,35.33
2023-04-16T01:29:56.363Z,67.35
2023-04-16T01:31:08.753Z,43.65
2023-04-16T01:32:32.996Z,50.17
2023-04-16T01:33:34.834Z,64.95
2023-04-16T01:34:37.630Z,135.60
2023-04-16T01:35:40.988Z,104.00
2023-04-16T01:36:45.153Z,47.88
2023-04-16T01:37:46.977Z,59.53
2023-04-16T01:38:50.202Z,33.25
2023-04-16T01:39:52.478Z,35.85
2023-04-16T01:40:57.521Z,45.90
2023-04-16T01:41:59.408Z,31.15
2023-04-16T01:43:02.409Z,29.52
2023-04-16T01:44:04.615Z,32.10
2023-04-16T01:45:08.622Z,38.85
2023-04-16T01:46:16.370Z,40.72
2023-04-16T01:47:19.346Z,43.20
2023-04-16T01:48:21.158Z,54.40
2023-04-16T01:49:24.591Z,84.25
2023-04-16T01:50:26.595Z,357.60
2023-04-16T01:51:29.669Z,218.43
2023-04-16T01:52:33.148Z,141.65
2023-04-16T01:53:37.116Z,58.70
2023-04-16T01:54:39.194Z,47.88
2023-04-16T01:55:42.406Z,64.40
2023-04-16T01:56:44.384Z,38.40
2023-04-16T01:57:47.261Z,57.85
2023-04-16T01:58:49.966Z,54.33
2023-04-16T01:59:54.423Z,48.90
2023-04-16T02:00:57.047Z,35.75
2023-04-16T02:02:02.126Z,39.88
2023-04-16T02:03:04.229Z,49.58
2023-04-16T02:04:08.203Z,63.67
2023-04-16T02:05:10.147Z,51.15
2023-04-16T02:06:12.993Z,45.03
2023-04-16T02:07:14.878Z,48.00
2023-04-16T02:08:19.199Z,67.05
2023-04-16T02:09:22.201Z,70.15
2023-04-16T02:10:25.065Z,208.55
2023-04-16T02:11:27.211Z,100.25
2023-04-16T02:12:31.339Z,58.35
2023-04-16T02:13:33.218Z,60.78
2023-04-16T02:14:36.403Z,174.35
2023-04-16T02:15:38.233Z,132.50
2023-04-16T02:16:41.093Z,72.18
2023-04-16T02:18:10.254Z,50.40
2023-04-16T02:19:13.312Z,212.10
2023-04-16T02:20:18.134Z,48.78
2023-04-16T02:21:28.874Z,49.25
2023-04-16T02:22:30.998Z,144.35
2023-04-16T02:23:35.257Z,55.70
2023-04-16T02:24:37.114Z,52.25
2023-04-16T02:25:45.305Z,78.35
2023-04-16T02:26:48.086Z,62.90
2023-04-16T02:27:53.556Z,74.32
2023-04-16T02:29:09.973Z,104.60
2023-04-16T02:30:18.648Z,84.30
2023-04-16T02:31:22.330Z,125.82
2023-04-16T02:32:25.356Z,97.78
2023-04-16T02:33:27.985Z,90.93
2023-04-16T02:34:36.165Z,67.10
2023-04-16T02:35:39.107Z,67.22
2023-04-16T02:36:42.269Z,60.45
2023-04-16T02:37:44.672Z,46.03
2023-04-16T02:38:48.959Z,55.63
2023-04-16T02:39:51.512Z,72.32
2023-04-16T02:40:54.322Z,103.20
2023-04-16T02:41:56.162Z,148.57
2023-04-16T02:42:59.483Z,76.25
2023-04-16T02:44:01.983Z,67.38
2023-04-16T02:45:05.033Z,172.95
2023-04-16T02:46:06.989Z,98.45
2023-04-16T02:47:09.800Z,74.78
2023-04-16T02:48:11.604Z,60.45
2023-04-16T02:49:14.435Z,69.03
2023-04-16T02:50:16.302Z,65.40
2023-04-16T02:51:19.105Z,69.22
2023-04-16T02:52:21.364Z,91.70
2023-04-16T02:53:24.190Z,91.65
2023-04-16T02:54:27.351Z,79.40
2023-04-16T02:55:30.468Z,62.92
2023-04-16T02:56:32.278Z,72.53
2023-04-16T02:57:35.351Z,71.20
2023-04-16T02:58:37.245Z,69.78
2023-04-16T02:59:40.123Z,70.95
2023-04-16T03:00:42.355Z,63.17
2023-04-16T03:01:45.798Z,63.22
2023-04-16T03:02:47.844Z,62.72
2023-04-16T03:03:50.778Z,64.38
2023-04-16T03:04:52.696Z,79.07
2023-04-16T03:05:55.668Z,124.90
2023-04-16T03:06:57.535Z,216.90
2023-04-16T03:08:00.380Z,177.68
2023-04-16T03:09:02.307Z,87.68
2023-04-16T03:10:08.262Z,70.75
2023-04-16T03:11:10.267Z,63.38
2023-04-16T03:12:13.201Z,65.75
2023-04-16T03:13:15.325Z,90.05
2023-04-16T03:14:20.867Z,79.15
2023-04-16T03:15:22.992Z,62.50
2023-04-16T03:16:26.079Z,61.30
2023-04-16T03:17:28.398Z,64.55
2023-04-16T03:18:32.013Z,68.07
2023-04-16T03:19:33.865Z,69.47
2023-04-16T03:20:36.704Z,69.55
2023-04-16T03:21:38.544Z,77.70
2023-04-16T03:22:41.378Z,106.18
2023-04-16T03:23:43.242Z,92.40
2023-04-16T03:24:46.065Z,120.07
2023-04-16T03:25:49.247Z,97.07
2023-04-16T03:26:54.406Z,93.68
2023-04-16T03:27:58.748Z,96.20
2023-04-16T03:29:02.090Z,94.53
2023-04-16T03:30:07.185Z,108.47
2023-04-16T03:31:11.496Z,115.18
2023-04-16T03:32:13.950Z,119.05
2023-04-16T03:33:16.817Z,103.07
2023-04-16T03:34:18.717Z,86.40
2023-04-16T03:35:21.975Z,102.82
2023-04-16T03:36:25.301Z,247.93
2023-04-16T03:37:27.192Z,131.43
2023-04-16T03:38:29.971Z,144.25
2023-04-16T03:39:33.897Z,158.48
2023-04-16T03:40:36.667Z,169.55
2023-04-16T03:41:39.801Z,174.10
2023-04-16T03:42:42.848Z,231.00
2023-04-16T03:43:44.783Z,141.25
2023-04-16T03:44:47.628Z,158.23
2023-04-16T03:45:50.948Z,189.57
2023-04-16T03:46:57.021Z,165.00
2023-04-16T03:47:59.089Z,234.15
2023-04-16T03:49:02.395Z,205.52
2023-04-16T03:50:04.803Z,181.82
2023-04-16T03:51:07.577Z,206.15
2023-04-16T03:52:09.536Z,180.27
2023-04-16T03:53:12.301Z,186.18
2023-04-16T03:54:14.651Z,122.95
2023-04-16T03:55:21.274Z,193.35
2023-04-16T03:56:23.136Z,217.65
2023-04-16T03:57:29.062Z,132.13
2023-04-16T03:58:36.517Z,150.63
2023-04-16T03:59:39.271Z,267.83
2023-04-16T04:00:41.721Z,147.05
2023-04-16T04:01:48.992Z,126.25
2023-04-16T04:02:51.098Z,114.13
2023-04-16T04:03:56.366Z,177.10
2023-04-16T04:04:58.655Z,175.18
2023-04-16T04:06:01.535Z,104.85
2023-04-16T04:07:05.517Z,155.85
2023-04-16T04:08:08.715Z,99.25
2023-04-16T04:09:11.733Z,128.50
2023-04-16T04:10:14.570Z,196.70
2023-04-16T04:11:17.523Z,132.93
2023-04-16T04:12:20.581Z,127.82
2023-04-16T04:13:24.380Z,155.95
2023-04-16T04:14:28.274Z,128.25
2023-04-16T04:15:30.234Z,81.80
2023-04-16T04:16:33.159Z,96.00
2023-04-16T04:17:35.421Z,86.55
2023-04-16T04:18:38.695Z,137.73
2023-04-16T04:19:47.133Z,231.98
2023-04-16T04:20:54.548Z,181.93
2023-04-16T04:22:00.136Z,188.48
2023-04-16T04:23:02.931Z,278.20
2023-04-16T04:24:05.460Z,243.68
2023-04-16T04:25:10.886Z,286.98
2023-04-16T04:26:12.746Z,194.23
2023-04-16T04:27:16.608Z,212.68
2023-04-16T04:28:18.453Z,279.30
2023-04-16T04:29:22.640Z,299.45
2023-04-16T04:30:25.424Z,292.85
2023-04-16T04:31:28.221Z,260.33
2023-04-16T04:32:31.289Z,307.17
2023-04-16T04:33:34.409Z,166.43
2023-04-16T04:34:36.639Z,343.83
2023-04-16T04:35:39.818Z,300.70
2023-04-16T04:36:43.843Z,303.45
2023-04-16T04:37:48.469Z,309.05
2023-04-16T04:38:53.837Z,247.30
2023-04-16T04:39:57.657Z,281.42
2023-04-16T04:40:59.761Z,240.18
2023-04-16T04:42:05.329Z,314.63
2023-04-16T04:43:07.288Z,132.13
2023-04-16T04:44:10.089Z,135.27
2023-04-16T04:45:13.594Z,338.88
2023-04-16T04:46:17.627Z,377.55
2023-04-16T04:47:19.639Z,320.70
2023-04-16T04:48:26.436Z,244.45
2023-04-16T04:49:30.536Z,287.00
2023-04-16T04:50:33.291Z,286.40
2023-04-16T04:51:35.894Z,339.00
2023-04-16T04:52:39.648Z,301.40
2023-04-16T04:53:42.496Z,307.33
2023-04-16T04:54:45.862Z,230.18
2023-04-16T04:55:50.899Z,260.08
2023-04-16T04:56:56.726Z,235.65
2023-04-16T04:57:58.554Z,174.55
2023-04-16T04:59:02.399Z,272.35
2023-04-16T05:00:04.788Z,349.13
2023-04-16T05:01:17.320Z,259.75
2023-04-16T05:02:22.706Z,191.27
2023-04-16T05:03:25.580Z,272.33
2023-04-16T05:04:27.421Z,345.65
2023-04-16T05:05:30.453Z,270.20
2023-04-16T05:06:32.289Z,227.75
2023-04-16T05:07:35.163Z,295.92
2023-04-16T05:08:37.053Z,390.63
2023-04-16T05:09:39.785Z,251.63
2023-04-16T05:10:41.604Z,251.73
2023-04-16T05:11:44.817Z,215.05
2023-04-16T05:12:48.928Z,367.92
2023-04-16T05:13:52.029Z,361.95
2023-04-16T05:14:53.838Z,364.45
2023-04-16T05:15:56.636Z,421.73
2023-04-16T05:16:59.817Z,349.73
2023-04-16T05:18:02.758Z,255.70
2023-04-16T05:19:04.993Z,362.02
2023-04-16T05:20:09.443Z,343.20
2023-04-16T05:21:11.363Z,313.98
2023-04-16T05:22:14.164Z,310.10
2023-04-16T05:23:16.018Z,298.27
2023-04-16T05:24:18.840Z,327.58
2023-04-16T05:25:21.008Z,243.73
2023-04-16T05:26:23.821Z,284.77
2023-04-16T05:27:25.856Z,328.65
2023-04-16T05:28:28.709Z,234.18
2023-04-16T05:29:30.620Z,264.58
2023-04-16T05:30:33.435Z,247.68
2023-04-16T05:31:35.236Z,292.23
2023-04-16T05:32:40.616Z,320.88
2023-04-16T05:33:42.747Z,338.42
2023-04-16T05:34:45.527Z,271.13
2023-04-16T05:35:47.298Z,289.50
2023-04-16T05:36:50.324Z,307.35
2023-04-16T05:37:52.129Z,286.20
2023-04-16T05:38:54.955Z,253.63
2023-04-16T05:39:56.847Z,311.40
2023-04-16T05:40:59.907Z,288.63
2023-04-16T05:42:01.769Z,358.58
2023-04-16T05:43:04.654Z,341.15
2023-04-16T05:44:06.493Z,266.27
2023-04-16T05:45:10.643Z,229.05
2023-04-16T05:46:12.577Z,206.98
2023-04-16T05:47:15.499Z,375.73
2023-04-16T05:48:20.080Z,215.57
2023-04-16T05:49:23.374Z,272.48
2023-04-16T05:50:25.429Z,395.05
2023-04-16T05:51:28.225Z,234.63
2023-04-16T05:52:30.180Z,157.23
2023-04-16T05:53:33.002Z,317.88
2023-04-16T05:54:34.820Z,273.10
2023-04-16T05:55:37.676Z,176.60
2023-04-16T05:56:39.439Z,276.73
2023-04-16T05:57:42.233Z,299.02
2023-04-16T05:58:44.530Z,340.10
2023-04-16T05:59:47.588Z,169.38
2023-04-16T06:00:49.405Z,208.20
2023-04-16T06:01:52.237Z,294.10
2023-04-16T06:02:54.171Z,240.82
2023-04-16T06:03:58.437Z,247.45
2023-04-16T06:05:01.381Z,130.98
2023-04-16T06:06:03.275Z,329.25
2023-04-16T06:07:06.200Z,156.95
2023-04-16T06:08:08.032Z,208.15
2023-04-16T06:09:11.744Z,116.68
2023-04-16T06:10:13.850Z,144.63
2023-04-16T06:11:16.946Z,232.52
2023-04-16T06:12:18.781Z,218.95
2023-04-16T06:13:21.698Z,154.00
2023-04-16T06:14:23.840Z,139.60
2023-04-16T06:15:26.853Z,149.98
2023-04-16T06:16:28.714Z,111.20
2023-04-16T06:17:31.651Z,142.27
2023-04-16T06:18:33.424Z,74.80
2023-04-16T06:19:37.523Z,76.90
2023-04-16T06:20:39.413Z,74.75
2023-04-16T06:21:42.176Z,65.28
2023-04-16T06:22:44.063Z,99.78
2023-04-16T06:23:46.967Z,82.60
2023-04-16T06:24:48.932Z,79.20
2023-04-16T06:25:51.794Z,79.72
2023-04-16T06:26:54.636Z,77.40
2023-04-16T06:27:57.399Z,102.32
2023-04-16T06:28:59.220Z,108.75
2023-04-16T06:30:02.089Z,102.15
2023-04-16T06:31:04.486Z,67.85
2023-04-16T06:32:09.176Z,71.00
2023-04-16T06:33:12.369Z,75.30
2023-04-16T06:34:14.213Z,67.53
2023-04-16T06:35:20.109Z,80.55
2023-04-16T06:36:22.313Z,80.63
2023-04-16T06:37:25.305Z,69.47
2023-04-16T06:38:27.058Z,77.80
2023-04-16T06:39:30.200Z,66.53
2023-04-16T06:40:32.005Z,61.92
2023-04-16T06:41:34.902Z,60.58
2023-04-16T06:42:36.811Z,49.53
2023-04-16T06:43:39.717Z,50.90
2023-04-16T06:44:41.534Z,42.00
2023-04-16T06:45:44.340Z,45.47
2023-04-16T06:46:46.200Z,46.42
2023-04-16T06:47:49.698Z,40.72
2023-04-16T06:48:51.792Z,48.20
2023-04-16T06:49:54.544Z,39.03
2023-04-16T06:50:57.711Z,46.92
2023-04-16T06:52:00.805Z,41.78
2023-04-16T06:53:02.670Z,37.95
2023-04-16T06:54:05.589Z,40.40
2023-04-16T06:55:09.685Z,36.85
2023-04-16T06:56:12.453Z,34.03
2023-04-16T06:57:14.314Z,33.42
2023-04-16T06:58:17.138Z,32.05
2023-04-16T06:59:18.908Z,34.55
2023-04-16T07:00:21.774Z,31.67
2023-04-16T07:01:23.749Z,26.85
2023-04-16T07:02:26.869Z,30.40
2023-04-16T07:04:31.639Z,31.45
2023-04-16T07:05:34.461Z,30.55
2023-04-16T07:06:37.596Z,26.52
2023-04-16T07:07:40.500Z,27.00
2023-04-16T07:08:42.277Z,26.48
2023-04-16T07:09:45.238Z,25.30
2023-04-16T07:10:47.202Z,25.30
2023-04-16T07:11:50.025Z,26.92
2023-04-16T07:12:51.986Z,26.85
2023-04-16T07:13:54.837Z,21.95
2023-04-16T07:14:56.659Z,26.55
2023-04-16T07:15:59.446Z,29.90
2023-04-16T07:17:01.286Z,32.53
2023-04-16T07:18:04.396Z,35.70
2023-04-16T07:19:06.248Z,29.88
2023-04-16T07:20:10.198Z,32.15
2023-04-16T07:21:12.008Z,32.33
2023-04-16T07:22:16.572Z,31.70
2023-04-16T07:23:18.438Z,29.17
2023-04-16T07:24:21.173Z,31.85
2023-04-16T07:25:24.102Z,32.20
2023-04-16T07:26:26.345Z,32.95
2023-04-16T07:27:29.124Z,29.63
2023-04-16T07:28:31.008Z,33.55
2023-04-16T07:29:33.817Z,33.42
2023-04-16T07:30:36.038Z,39.70
2023-04-16T07:31:39.565Z,38.17
2023-04-16T07:32:41.622Z,36.20
2023-04-16T07:33:44.465Z,38.63
2023-04-16T07:34:46.420Z,36.47
2023-04-16T07:35:49.433Z,34.10
2023-04-16T07:36:51.267Z,37.70
2023-04-16T07:37:55.441Z,32.33
2023-04-16T07:38:59.227Z,43.58
2023-04-16T07:40:01.970Z,35.67
2023-04-16T07:41:04.745Z,40.10
2023-04-16T07:42:06.955Z,32.65
2023-04-16T07:43:10.085Z,35.47
2023-04-16T07:44:12.885Z,37.58
2023-04-16T07:45:16.088Z,38.53
2023-04-16T07:46:17.948Z,37.10
2023-04-16T07:47:21.144Z,35.38
2023-04-16T07:48:22.961Z,31.10
2023-04-16T07:49:26.137Z,35.67
2023-04-16T07:50:29.076Z,35.92
2023-04-16T07:51:31.348Z,34.30
2023-04-16T07:52:34.155Z,38.97
2023-04-16T07:53:37.347Z,35.88
2023-04-16T07:54:40.529Z,35.75
2023-04-16T07:55:42.296Z,34.00
2023-04-16T07:56:45.040Z,34.08
2023-04-16T07:57:46.844Z,31.33
2023-04-16T07:58:49.597Z,33.53
2023-04-16T07:59:52.698Z,28.88
2023-04-16T08:00:55.347Z,30.95
2023-04-16T08:01:58.231Z,31.88
2023-04-16T08:03:00.308Z,30.83
2023-04-16T08:04:03.533Z,31.35
2023-04-16T08:05:06.399Z,33.13
2023-04-16T08:06:09.164Z,29.30
2023-04-16T08:07:11.029Z,28.92
2023-04-16T08:08:13.806Z,28.45
2023-04-16T08:09:17.108Z,26.67
2023-04-16T08:10:20.225Z,27.95
2023-04-16T08:11:23.015Z,26.42
2023-04-16T08:12:24.909Z,31.15
2023-04-16T08:13:27.703Z,28.60
2023-04-16T08:14:30.820Z,28.27
2023-04-16T08:15:33.748Z,31.52
2023-04-16T08:16:35.820Z,31.13
2023-04-16T08:17:39.529Z,28.10
2023-04-16T08:18:41.405Z,24.77
2023-04-16T08:19:44.796Z,27.20
2023-04-16T08:20:46.699Z,25.55
2023-04-16T08:21:49.471Z,30.52
2023-04-16T08:22:52.318Z,27.70
2023-04-16T08:23:54.152Z,26.45
2023-04-16T08:24:58.241Z,23.15
2023-04-16T08:26:01.442Z,26.02
2023-04-16T08:27:15.467Z,24.40
2023-04-16T08:28:21.665Z,20.83
2023-04-16T08:29:26.213Z,23.80
2023-04-16T08:30:29.455Z,19.83
2023-04-16T08:31:31.828Z,25.08
2023-04-16T08:32:34.904Z,21.75
2023-04-16T08:33:36.790Z,20.30
2023-04-16T08:34:39.823Z,20.55
2023-04-16T08:35:41.717Z,20.92
2023-04-16T08:36:44.532Z,23.40
2023-04-16T08:37:47.333Z,23.38
2023-04-16T08:38:49.162Z,18.23
2023-04-16T08:39:51.894Z,20.70
2023-04-16T08:40:55.153Z,16.85
2023-04-16T08:41:58.148Z,19.92
2023-04-16T08:43:01.413Z,16.05
2023-04-16T08:44:09.326Z,15.82
2023-04-16T08:45:14.229Z,16.88
2023-04-16T08:46:18.072Z,17.15
2023-04-16T08:47:22.103Z,16.38
2023-04-16T08:48:25.664Z,16.80
2023-04-16T08:49:27.869Z,17.27
2023-04-16T08:50:30.971Z,20.40
2023-04-16T08:51:35.399Z,16.73
2023-04-16T08:52:39.208Z,16.90
2023-04-16T08:53:48.039Z,15.38
2023-04-16T08:54:57.175Z,19.23
2023-04-16T08:56:05.387Z,21.00
2023-04-16T08:57:07.486Z,19.90
2023-04-16T08:58:15.479Z,21.67
2023-04-16T08:59:17.849Z,23.77
2023-04-16T09:00:21.226Z,18.77
2023-04-16T09:01:25.012Z,17.55
2023-04-16T09:02:28.107Z,14.83
2023-04-16T09:03:31.885Z,16.67
2023-04-16T09:04:37.891Z,18.30
2023-04-16T09:05:41.086Z,17.87
2023-04-16T09:06:43.360Z,19.63
2023-04-16T09:07:47.112Z,14.27
2023-04-16T09:08:49.472Z,14.70
2023-04-16T09:09:54.202Z,12.97
2023-04-16T09:10:56.496Z,15.60
2023-04-16T09:12:00.769Z,16.03
2023-04-16T09:13:02.561Z,16.83
2023-04-16T09:14:05.880Z,12.40
2023-04-16T09:15:10.110Z,9.27
2023-04-16T09:16:13.157Z,8.90
2023-04-16T09:17:16.803Z,11.10
2023-04-16T09:18:20.399Z,10.10
2023-04-16T09:19:22.303Z,9.38
2023-04-16T09:20:25.422Z,11.95
2023-04-16T09:21:27.971Z,13.65
2023-04-16T09:22:30.736Z,10.68
2023-04-16T09:23:32.608Z,10.90
2023-04-16T09:24:35.560Z,9.55
2023-04-16T09:25:38.443Z,10.98
2023-04-16T09:26:43.273Z,10.30
2023-04-16T09:27:50.735Z,9.63
2023-04-16T09:28:52.549Z,21.27
2023-04-16T09:29:55.392Z,16.80
2023-04-16T09:31:08.209Z,11.10
2023-04-16T09:32:12.520Z,10.45
2023-04-16T09:33:22.063Z,8.80
2023-04-16T09:34:24.865Z,6.18
2023-04-16T09:35:26.686Z,6.75
2023-04-16T09:36:29.558Z,6.55
2023-04-16T09:37:31.539Z,10.10
2023-04-16T09:38:47.776Z,8.82
2023-04-16T09:39:54.088Z,8.07
2023-04-16T09:41:08.107Z,9.35
2023-04-16T09:42:09.967Z,10.35
2023-04-16T09:43:15.508Z,7.85
2023-04-16T09:44:17.300Z,8.77
2023-04-16T09:45:20.088Z,9.02
2023-04-16T09:46:22.441Z,8.57
2023-04-16T09:47:27.002Z,10.07
2023-04-16T09:48:30.139Z,9.07
2023-04-16T09:49:35.684Z,9.45
2023-04-16T09:50:37.468Z,8.10
2023-04-16T09:51:42.237Z,8.07
2023-04-16T09:52:45.210Z,8.70
2023-04-16T09:53:48.039Z,9.80
2023-04-16T09:54:50.942Z,8.73
2023-04-16T09:55:53.796Z,10.38
2023-04-16T09:56:57.097Z,10.80
2023-04-16T09:58:01.160Z,9.30
2023-04-16T09:59:05.809Z,8.93
2023-04-16T10:00:09.273Z,7.53
2023-04-16T10:01:13.749Z,8.40
2023-04-16T10:02:16.602Z,8.25
2023-04-16T10:03:19.628Z,8.52
2023-04-16T10:04:22.504Z,10.60
2023-04-16T10:05:26.443Z,8.68
2023-04-16T10:06:31.169Z,10.32
2023-04-16T10:07:34.708Z,8.43
2023-04-16T10:08:37.617Z,8.45
2023-04-16T10:09:39.616Z,8.90
2023-04-16T10:10:42.623Z,7.43
2023-04-16T10:11:45.915Z,8.10
2023-04-16T10:12:47.833Z,6.38
2023-04-16T10:13:51.432Z,8.98
2023-04-16T10:14:54.636Z,6.70
2023-04-16T10:15:57.827Z,7.07
2023-04-16T10:17:00.010Z,6.80
2023-04-16T10:18:03.564Z,7.20
2023-04-16T10:19:05.483Z,7.68
2023-04-16T10:20:08.946Z,9.73
2023-04-16T10:21:12.089Z,6.43
2023-04-16T10:22:15.005Z,7.15
2023-04-16T10:23:16.899Z,7.40
2023-04-16T10:24:20.120Z,8.73
2023-04-16T10:25:22.102Z,6.93
2023-04-16T10:26:25.358Z,7.00
2023-04-16T10:27:27.319Z,7.97
2023-04-16T10:28:30.213Z,8.63
2023-04-16T10:29:33.811Z,7.87
2023-04-16T10:30:37.361Z,6.20
2023-04-16T10:31:40.776Z,7.13
2023-04-16T10:32:42.650Z,6.53
2023-04-16T10:33:46.420Z,6.10
2023-04-16T10:34:48.397Z,5.70
2023-04-16T10:36:01.369Z,5.70
2023-04-16T10:37:10.512Z,4.70
2023-04-16T10:38:22.723Z,5.27
2023-04-16T10:39:28.324Z,5.57
2023-04-16T10:40:30.321Z,6.67
2023-04-16T10:41:33.569Z,5.60
2023-04-16T10:42:35.474Z,8.07
2023-04-16T10:43:42.482Z,6.53
2023-04-16T10:44:46.228Z,6.77
2023-04-16T10:45:50.403Z,5.93
2023-04-16T10:46:56.003Z,5.97
2023-04-16T10:47:57.913Z,6.20
2023-04-16T10:49:02.801Z,7.57
2023-04-16T10:50:16.987Z,11.03
2023-04-16T10:51:27.701Z,6.63
2023-04-16T10:52:30.578Z,7.13
2023-04-16T10:53:33.480Z,6.07
2023-04-16T10:54:37.001Z,6.40
2023-04-16T10:55:39.217Z,5.53
2023-04-16T10:56:42.414Z,6.03
2023-04-16T10:57:54.477Z,5.80
2023-04-16T10:58:56.475Z,6.47
2023-04-16T10:59:59.925Z,6.70
2023-04-16T11:01:07.204Z,6.05
2023-04-16T11:02:13.177Z,6.70
2023-04-16T11:03:16.944Z,7.72
2023-04-16T11:04:31.041Z,6.57
2023-04-16T11:05:46.712Z,6.93
2023-04-16T11:07:02.869Z,5.73
2023-04-16T11:08:14.938Z,6.05
2023-04-16T11:09:45.652Z,7.45
2023-04-16T11:10:48.574Z,7.60
2023-04-16T11:11:50.484Z,6.30
2023-04-16T11:12:54.164Z,10.33
2023-04-16T11:13:57.085Z,8.47
2023-04-16T11:15:01.184Z,6.00
2023-04-16T11:16:04.760Z,6.50
2023-04-16T11:17:07.741Z,6.53
2023-04-16T11:18:11.188Z,5.93
2023-04-16T11:19:16.807Z,5.43
2023-04-16T11:20:23.030Z,6.77
2023-04-16T11:21:25.434Z,5.53
2023-04-16T11:22:28.244Z,5.63
2023-04-16T11:23:30.451Z,5.57
2023-04-16T11:24:33.600Z,5.87
2023-04-16T11:25:35.404Z,5.50
2023-04-16T11:26:38.212Z,8.63
2023-04-16T11:27:40.935Z,5.40
2023-04-16T11:28:43.744Z,5.67
2023-04-16T11:29:47.566Z,5.38
2023-04-16T11:30:50.619Z,6.83
2023-04-16T11:31:55.014Z,5.30
2023-04-16T11:32:58.177Z,5.87
2023-04-16T11:34:01.064Z,6.13
2023-04-16T11:35:04.779Z,11.97
2023-04-16T11:36:07.871Z,8.03
2023-04-16T11:37:09.662Z,6.00
2023-04-16T11:38:12.441Z,5.93
2023-04-16T11:39:14.733Z,7.30
2023-04-16T11:40:17.532Z,8.03
2023-04-16T11:41:20.462Z,5.82
2023-04-16T11:42:24.136Z,5.67
2023-04-16T11:43:26.710Z,5.25
2023-04-16T11:44:30.362Z,4.85
2023-04-16T11:45:33.378Z,5.13
2023-04-16T11:46:38.484Z,5.07
2023-04-16T11:47:46.656Z,4.90
2023-04-16T11:48:50.033Z,6.50
2023-04-16T11:49:53.011Z,5.75
2023-04-16T11:50:57.999Z,5.40
2023-04-16T11:52:01.403Z,5.30
2023-04-16T11:53:05.030Z,4.90
2023-04-16T11:54:10.353Z,5.47
2023-04-16T11:55:14.057Z,5.65
2023-04-16T11:56:17.549Z,5.15
2023-04-16T11:57:25.724Z,4.57
2023-04-16T11:58:27.551Z,4.67
2023-04-16T11:59:30.324Z,4.80
2023-04-16T12:00:35.129Z,4.75
2023-04-16T12:01:39.158Z,5.88
2023-04-16T12:02:42.644Z,4.47
2023-04-16T12:03:49.550Z,5.18
2023-04-16T12:04:54.070Z,5.18
2023-04-16T12:06:07.825Z,6.77
2023-04-16T12:07:11.775Z,4.80
2023-04-16T12:08:28.760Z,8.02
2023-04-16T12:09:31.684Z,5.50
2023-04-16T12:10:35.145Z,5.43
2023-04-16T12:11:41.463Z,5.63
2023-04-16T12:12:44.201Z,5.05
2023-04-16T12:14:08.007Z,5.47
2023-04-16T12:15:11.707Z,5.40
2023-04-16T12:16:19.461Z,5.85
2023-04-16T12:17:22.751Z,5.43
2023-04-16T12:18:27.180Z,6.53
2023-04-16T12:19:31.473Z,7.63
2023-04-16T12:20:39.625Z,6.13
2023-04-16T12:21:43.988Z,5.27
2023-04-16T12:22:47.383Z,4.70
2023-04-16T12:23:54.621Z,13.13
2023-04-16T12:24:59.649Z,7.00
2023-04-16T12:26:10.629Z,6.23
2023-04-16T12:27:12.974Z,5.30
2023-04-16T12:28:16.599Z,5.20
2023-04-16T12:29:20.532Z,6.20
2023-04-16T12:30:24.308Z,5.10
2023-04-16T12:31:37.164Z,4.43
2023-04-16T12:32:40.021Z,5.27
2023-04-16T12:33:42.490Z,7.00
2023-04-16T12:34:52.423Z,5.00
2023-04-16T12:35:55.193Z,4.93
2023-04-16T12:37:09.390Z,5.00
2023-04-16T12:38:15.016Z,4.37
2023-04-16T12:39:17.804Z,4.47
2023-04-16T12:40:19.613Z,4.30
2023-04-16T12:41:22.433Z,4.10
2023-04-16T12:42:24.225Z,4.20
2023-04-16T12:43:27.547Z,4.37
2023-04-16T12:44:29.518Z,4.13
2023-04-16T12:45:32.300Z,4.83
2023-04-16T12:46:34.112Z,4.87
2023-04-16T12:47:36.986Z,4.13
2023-04-16T12:48:38.800Z,4.17
2023-04-16T12:49:41.772Z,5.30
2023-04-16T12:50:46.018Z,4.20
2023-04-16T12:51:48.792Z,4.47
2023-04-16T12:52:50.751Z,4.57
2023-04-16T12:53:54.064Z,4.30
2023-04-16T12:54:56.272Z,4.33
2023-04-16T12:55:59.453Z,4.30
2023-04-16T12:57:01.652Z,5.43
2023-04-16T12:58:04.482Z,4.00
2023-04-16T12:59:06.327Z,4.60
2023-04-16T13:00:10.935Z,4.90
2023-04-16T13:01:12.848Z,4.47
2023-04-16T13:02:15.752Z,6.23
2023-04-16T13:03:18.776Z,4.13
2023-04-16T13:04:22.021Z,5.23
2023-04-16T13:05:26.695Z,6.60
2023-04-16T13:06:31.410Z,5.20
2023-04-16T13:07:34.238Z,4.80
2023-04-16T13:08:36.147Z,4.27
2023-04-16T13:09:39.880Z,5.03
2023-04-16T13:10:41.935Z,4.83
2023-04-16T13:11:44.700Z,5.40
2023-04-16T13:12:46.675Z,5.87
2023-04-16T13:13:49.571Z,5.63
2023-04-16T13:14:51.384Z,4.20
2023-04-16T13:15:54.276Z,4.23
2023-04-16T13:16:57.069Z,5.73
2023-04-16T13:17:58.947Z,4.20
2023-04-16T13:19:02.522Z,4.40
2023-04-16T13:20:05.026Z,4.57
2023-04-16T13:21:07.946Z,4.93
2023-04-16T13:22:11.276Z,4.80
2023-04-16T13:23:14.200Z,4.50
2023-04-16T13:24:16.047Z,4.60
2023-04-16T13:25:18.887Z,4.27
2023-04-16T13:26:22.186Z,4.60
2023-04-16T13:27:24.049Z,4.87
2023-04-16T13:28:27.478Z,4.17
2023-04-16T13:29:30.447Z,4.73
2023-04-16T13:30:33.448Z,4.60
2023-04-16T13:31:36.982Z,4.53
2023-04-16T13:32:38.881Z,4.37
2023-04-16T13:33:41.643Z,4.57
2023-04-16T13:34:43.686Z,4.50
2023-04-16T13:35:46.493Z,4.33
2023-04-16T13:36:48.550Z,4.10
2023-04-16T13:37:53.077Z,5.70
2023-04-16T13:38:54.872Z,4.70
2023-04-16T13:39:57.630Z,5.37
2023-04-16T13:40:59.525Z,5.10
2023-04-16T13:42:02.703Z,5.27